sensor_id;sensor_type;location;lat;lon;timestamp;P1;durP1;ratioP1;P2;durP2;ratioP2
51792;SDS011;37850;53.178;6.376;2023-07-20T00:00:49;2.42;;;1.35;;
51792;SDS011;37850;53.178;6.376;2023-07-20T00:03:18;4.43;;;1.85;;
51792;SDS011;37850;53.178;6.376;2023-07-20T00:05:48;3.80;;;1.70;;
51792;SDS011;37850;53.178;6.376;2023-07-20T00:08:14;2.80;;;1.50;;
51792;SDS011;37850;53.178;6.376;2023-07-20T00:10:41;2.90;;;1.52;;
51792;SDS011;37850;53.178;6.376;2023-07-20T00:13:07;2.95;;;1.40;;
51792;SDS011;37850;53.178;6.376;2023-07-20T00:15:33;5.65;;;1.60;;
51792;SDS011;37850;53.178;6.376;2023-07-20T00:17:59;3.28;;;1.60;;
51792;SDS011;37850;53.178;6.376;2023-07-20T00:20:25;3.45;;;1.40;;
51792;SDS011;37850;53.178;6.376;2023-07-20T00:22:51;3.30;;;1.73;;
51792;SDS011;37850;53.178;6.376;2023-07-20T00:25:17;5.22;;;1.75;;
51792;SDS011;37850;53.178;6.376;2023-07-20T00:27:43;5.43;;;2.65;;
51792;SDS011;37850;53.178;6.376;2023-07-20T00:30:09;4.45;;;1.90;;
51792;SDS011;37850;53.178;6.376;2023-07-20T00:32:35;4.13;;;1.80;;
51792;SDS011;37850;53.178;6.376;2023-07-20T00:35:01;4.60;;;1.83;;
51792;SDS011;37850;53.178;6.376;2023-07-20T00:37:27;3.90;;;2.00;;
51792;SDS011;37850;53.178;6.376;2023-07-20T00:39:54;4.30;;;1.95;;
51792;SDS011;37850;53.178;6.376;2023-07-20T00:42:19;4.68;;;1.92;;
51792;SDS011;37850;53.178;6.376;2023-07-20T00:44:45;4.25;;;2.03;;
51792;SDS011;37850;53.178;6.376;2023-07-20T00:47:11;4.38;;;2.03;;
51792;SDS011;37850;53.178;6.376;2023-07-20T00:49:40;5.18;;;2.00;;
51792;SDS011;37850;53.178;6.376;2023-07-20T00:52:06;5.15;;;2.08;;
51792;SDS011;37850;53.178;6.376;2023-07-20T00:54:35;4.43;;;1.85;;
51792;SDS011;37850;53.178;6.376;2023-07-20T00:57:04;4.88;;;2.03;;
51792;SDS011;37850;53.178;6.376;2023-07-20T00:59:33;4.80;;;2.38;;
51792;SDS011;37850;53.178;6.376;2023-07-20T01:02:01;5.32;;;2.10;;
51792;SDS011;37850;53.178;6.376;2023-07-20T01:04:27;3.95;;;1.77;;
51792;SDS011;37850;53.178;6.376;2023-07-20T01:07:07;4.65;;;1.98;;
51792;SDS011;37850;53.178;6.376;2023-07-20T01:09:44;3.63;;;1.80;;
51792;SDS011;37850;53.178;6.376;2023-07-20T01:12:27;3.55;;;1.95;;
51792;SDS011;37850;53.178;6.376;2023-07-20T01:15:01;3.47;;;1.98;;
51792;SDS011;37850;53.178;6.376;2023-07-20T01:17:27;5.55;;;2.17;;
51792;SDS011;37850;53.178;6.376;2023-07-20T01:19:52;3.67;;;1.92;;
51792;SDS011;37850;53.178;6.376;2023-07-20T01:24:58;4.32;;;2.10;;
51792;SDS011;37850;53.178;6.376;2023-07-20T01:30:51;3.88;;;2.00;;
51792;SDS011;37850;53.178;6.376;2023-07-20T01:33:19;3.63;;;1.83;;
51792;SDS011;37850;53.178;6.376;2023-07-20T01:35:48;4.68;;;1.90;;
51792;SDS011;37850;53.178;6.376;2023-07-20T01:38:18;4.68;;;2.47;;
51792;SDS011;37850;53.178;6.376;2023-07-20T01:40:45;3.15;;;1.98;;
51792;SDS011;37850;53.178;6.376;2023-07-20T01:43:11;6.03;;;2.25;;
51792;SDS011;37850;53.178;6.376;2023-07-20T01:45:38;3.53;;;1.92;;
51792;SDS011;37850;53.178;6.376;2023-07-20T01:48:04;5.85;;;2.10;;
51792;SDS011;37850;53.178;6.376;2023-07-20T01:50:30;5.35;;;2.00;;
51792;SDS011;37850;53.178;6.376;2023-07-20T01:52:56;4.70;;;2.35;;
51792;SDS011;37850;53.178;6.376;2023-07-20T01:55:21;3.45;;;1.85;;
51792;SDS011;37850;53.178;6.376;2023-07-20T01:57:47;4.32;;;1.85;;
51792;SDS011;37850;53.178;6.376;2023-07-20T02:00:13;4.15;;;1.83;;
51792;SDS011;37850;53.178;6.376;2023-07-20T02:02:39;4.43;;;2.05;;
51792;SDS011;37850;53.178;6.376;2023-07-20T02:05:06;6.28;;;2.10;;
51792;SDS011;37850;53.178;6.376;2023-07-20T02:07:32;3.65;;;2.08;;
51792;SDS011;37850;53.178;6.376;2023-07-20T02:09:58;5.10;;;1.77;;
51792;SDS011;37850;53.178;6.376;2023-07-20T02:12:24;5.85;;;2.10;;
51792;SDS011;37850;53.178;6.376;2023-07-20T02:14:50;3.30;;;1.80;;
51792;SDS011;37850;53.178;6.376;2023-07-20T02:17:16;5.85;;;2.20;;
51792;SDS011;37850;53.178;6.376;2023-07-20T02:19:42;5.10;;;1.83;;
51792;SDS011;37850;53.178;6.376;2023-07-20T02:22:08;4.15;;;2.03;;
51792;SDS011;37850;53.178;6.376;2023-07-20T02:24:34;4.97;;;2.03;;
51792;SDS011;37850;53.178;6.376;2023-07-20T02:26:59;3.85;;;1.83;;
51792;SDS011;37850;53.178;6.376;2023-07-20T02:29:25;3.75;;;1.90;;
51792;SDS011;37850;53.178;6.376;2023-07-20T02:31:51;3.38;;;1.80;;
51792;SDS011;37850;53.178;6.376;2023-07-20T02:34:16;3.20;;;1.80;;
51792;SDS011;37850;53.178;6.376;2023-07-20T02:36:42;4.20;;;1.95;;
51792;SDS011;37850;53.178;6.376;2023-07-20T02:39:08;5.35;;;2.13;;
51792;SDS011;37850;53.178;6.376;2023-07-20T02:41:34;5.22;;;2.03;;
51792;SDS011;37850;53.178;6.376;2023-07-20T02:44:00;5.57;;;1.85;;
51792;SDS011;37850;53.178;6.376;2023-07-20T02:46:27;4.90;;;2.10;;
51792;SDS011;37850;53.178;6.376;2023-07-20T02:48:55;3.28;;;1.73;;
51792;SDS011;37850;53.178;6.376;2023-07-20T02:51:21;4.55;;;1.73;;
51792;SDS011;37850;53.178;6.376;2023-07-20T02:53:46;4.63;;;1.92;;
51792;SDS011;37850;53.178;6.376;2023-07-20T02:56:12;3.42;;;1.70;;
51792;SDS011;37850;53.178;6.376;2023-07-20T02:58:40;4.68;;;1.88;;
51792;SDS011;37850;53.178;6.376;2023-07-20T03:01:08;4.10;;;2.13;;
51792;SDS011;37850;53.178;6.376;2023-07-20T03:03:36;5.38;;;2.30;;
51792;SDS011;37850;53.178;6.376;2023-07-20T03:06:04;5.13;;;2.17;;
51792;SDS011;37850;53.178;6.376;2023-07-20T03:08:30;4.85;;;1.85;;
51792;SDS011;37850;53.178;6.376;2023-07-20T03:10:56;4.28;;;2.05;;
51792;SDS011;37850;53.178;6.376;2023-07-20T03:13:22;3.47;;;1.90;;
51792;SDS011;37850;53.178;6.376;2023-07-20T03:15:49;4.80;;;2.40;;
51792;SDS011;37850;53.178;6.376;2023-07-20T03:18:14;7.15;;;2.15;;
51792;SDS011;37850;53.178;6.376;2023-07-20T03:20:40;6.15;;;2.20;;
51792;SDS011;37850;53.178;6.376;2023-07-20T03:23:06;3.70;;;1.85;;
51792;SDS011;37850;53.178;6.376;2023-07-20T03:25:32;4.85;;;2.17;;
51792;SDS011;37850;53.178;6.376;2023-07-20T03:27:58;5.88;;;2.50;;
51792;SDS011;37850;53.178;6.376;2023-07-20T03:30:24;5.25;;;2.10;;
51792;SDS011;37850;53.178;6.376;2023-07-20T03:32:50;5.80;;;1.77;;
51792;SDS011;37850;53.178;6.376;2023-07-20T03:35:16;4.60;;;2.13;;
51792;SDS011;37850;53.178;6.376;2023-07-20T03:37:42;3.92;;;1.95;;
51792;SDS011;37850;53.178;6.376;2023-07-20T03:40:08;6.80;;;2.15;;
51792;SDS011;37850;53.178;6.376;2023-07-20T03:42:35;5.70;;;2.20;;
51792;SDS011;37850;53.178;6.376;2023-07-20T03:45:01;6.00;;;2.20;;
51792;SDS011;37850;53.178;6.376;2023-07-20T03:47:28;3.97;;;2.00;;
51792;SDS011;37850;53.178;6.376;2023-07-20T03:49:54;5.20;;;2.00;;
51792;SDS011;37850;53.178;6.376;2023-07-20T03:52:19;4.25;;;1.95;;
51792;SDS011;37850;53.178;6.376;2023-07-20T03:54:45;3.75;;;1.98;;
51792;SDS011;37850;53.178;6.376;2023-07-20T03:57:11;3.95;;;1.75;;
51792;SDS011;37850;53.178;6.376;2023-07-20T03:59:37;4.43;;;1.90;;
51792;SDS011;37850;53.178;6.376;2023-07-20T04:02:04;4.32;;;2.10;;
51792;SDS011;37850;53.178;6.376;2023-07-20T04:04:30;3.85;;;1.70;;
51792;SDS011;37850;53.178;6.376;2023-07-20T04:06:56;5.05;;;2.17;;
51792;SDS011;37850;53.178;6.376;2023-07-20T04:09:22;3.55;;;1.75;;
51792;SDS011;37850;53.178;6.376;2023-07-20T04:11:47;5.05;;;2.05;;
51792;SDS011;37850;53.178;6.376;2023-07-20T04:14:13;4.30;;;2.00;;
51792;SDS011;37850;53.178;6.376;2023-07-20T04:16:39;4.55;;;1.85;;
51792;SDS011;37850;53.178;6.376;2023-07-20T04:19:05;4.55;;;2.08;;
51792;SDS011;37850;53.178;6.376;2023-07-20T04:21:30;4.45;;;1.98;;
51792;SDS011;37850;53.178;6.376;2023-07-20T04:23:56;3.80;;;1.90;;
51792;SDS011;37850;53.178;6.376;2023-07-20T04:26:22;4.63;;;2.25;;
51792;SDS011;37850;53.178;6.376;2023-07-20T04:28:48;6.32;;;1.85;;
51792;SDS011;37850;53.178;6.376;2023-07-20T04:31:15;4.43;;;1.70;;
51792;SDS011;37850;53.178;6.376;2023-07-20T04:33:41;3.90;;;1.70;;
51792;SDS011;37850;53.178;6.376;2023-07-20T04:36:07;3.33;;;1.58;;
51792;SDS011;37850;53.178;6.376;2023-07-20T04:38:35;4.32;;;1.90;;
51792;SDS011;37850;53.178;6.376;2023-07-20T04:41:01;4.05;;;1.85;;
51792;SDS011;37850;53.178;6.376;2023-07-20T04:43:28;4.97;;;1.85;;
51792;SDS011;37850;53.178;6.376;2023-07-20T04:45:54;4.03;;;1.90;;
51792;SDS011;37850;53.178;6.376;2023-07-20T04:48:20;7.63;;;2.42;;
51792;SDS011;37850;53.178;6.376;2023-07-20T04:50:46;7.05;;;1.77;;
51792;SDS011;37850;53.178;6.376;2023-07-20T04:53:12;3.80;;;1.70;;
51792;SDS011;37850;53.178;6.376;2023-07-20T04:55:38;5.20;;;1.90;;
51792;SDS011;37850;53.178;6.376;2023-07-20T04:58:04;3.40;;;1.60;;
51792;SDS011;37850;53.178;6.376;2023-07-20T05:00:31;6.75;;;2.58;;
51792;SDS011;37850;53.178;6.376;2023-07-20T05:02:58;3.75;;;1.90;;
51792;SDS011;37850;53.178;6.376;2023-07-20T05:05:23;3.95;;;1.80;;
51792;SDS011;37850;53.178;6.376;2023-07-20T05:07:49;3.97;;;1.60;;
51792;SDS011;37850;53.178;6.376;2023-07-20T05:10:16;5.00;;;1.90;;
51792;SDS011;37850;53.178;6.376;2023-07-20T05:12:42;4.28;;;2.00;;
51792;SDS011;37850;53.178;6.376;2023-07-20T05:15:08;5.38;;;1.90;;
51792;SDS011;37850;53.178;6.376;2023-07-20T05:17:34;5.95;;;1.70;;
51792;SDS011;37850;53.178;6.376;2023-07-20T05:20:00;4.07;;;1.58;;
51792;SDS011;37850;53.178;6.376;2023-07-20T05:22:26;3.90;;;1.75;;
51792;SDS011;37850;53.178;6.376;2023-07-20T05:24:51;5.20;;;1.50;;
51792;SDS011;37850;53.178;6.376;2023-07-20T05:27:17;3.47;;;1.55;;
51792;SDS011;37850;53.178;6.376;2023-07-20T05:29:44;4.07;;;1.63;;
51792;SDS011;37850;53.178;6.376;2023-07-20T05:32:10;3.92;;;1.52;;
51792;SDS011;37850;53.178;6.376;2023-07-20T05:34:37;5.05;;;1.52;;
51792;SDS011;37850;53.178;6.376;2023-07-20T05:37:02;6.25;;;1.83;;
51792;SDS011;37850;53.178;6.376;2023-07-20T05:39:28;3.25;;;1.70;;
51792;SDS011;37850;53.178;6.376;2023-07-20T05:41:54;4.45;;;1.50;;
51792;SDS011;37850;53.178;6.376;2023-07-20T05:44:19;3.70;;;1.65;;
51792;SDS011;37850;53.178;6.376;2023-07-20T05:46:45;5.25;;;1.80;;
51792;SDS011;37850;53.178;6.376;2023-07-20T05:49:11;3.08;;;1.50;;
51792;SDS011;37850;53.178;6.376;2023-07-20T05:51:37;5.05;;;1.50;;
51792;SDS011;37850;53.178;6.376;2023-07-20T05:54:03;4.45;;;1.40;;
51792;SDS011;37850;53.178;6.376;2023-07-20T05:56:28;6.85;;;1.52;;
51792;SDS011;37850;53.178;6.376;2023-07-20T05:58:54;3.33;;;1.60;;
51792;SDS011;37850;53.178;6.376;2023-07-20T06:01:20;3.67;;;1.52;;
51792;SDS011;37850;53.178;6.376;2023-07-20T06:03:45;4.25;;;1.40;;
51792;SDS011;37850;53.178;6.376;2023-07-20T06:06:11;3.25;;;1.48;;
51792;SDS011;37850;53.178;6.376;2023-07-20T06:08:38;3.53;;;1.40;;
51792;SDS011;37850;53.178;6.376;2023-07-20T06:11:04;4.47;;;1.88;;
51792;SDS011;37850;53.178;6.376;2023-07-20T06:13:29;4.13;;;1.50;;
51792;SDS011;37850;53.178;6.376;2023-07-20T06:15:56;4.30;;;1.52;;
51792;SDS011;37850;53.178;6.376;2023-07-20T06:18:24;3.50;;;1.73;;
51792;SDS011;37850;53.178;6.376;2023-07-20T06:20:50;5.65;;;1.63;;
51792;SDS011;37850;53.178;6.376;2023-07-20T06:23:18;3.78;;;1.60;;
51792;SDS011;37850;53.178;6.376;2023-07-20T06:25:45;3.40;;;1.50;;
51792;SDS011;37850;53.178;6.376;2023-07-20T06:28:13;6.72;;;1.67;;
51792;SDS011;37850;53.178;6.376;2023-07-20T06:30:39;4.15;;;1.40;;
51792;SDS011;37850;53.178;6.376;2023-07-20T06:33:05;4.53;;;1.40;;
51792;SDS011;37850;53.178;6.376;2023-07-20T06:35:32;6.47;;;1.42;;
51792;SDS011;37850;53.178;6.376;2023-07-20T06:37:58;5.93;;;1.42;;
51792;SDS011;37850;53.178;6.376;2023-07-20T06:40:25;5.38;;;1.52;;
51792;SDS011;37850;53.178;6.376;2023-07-20T06:42:52;3.70;;;1.30;;
51792;SDS011;37850;53.178;6.376;2023-07-20T06:45:17;5.97;;;1.10;;
51792;SDS011;37850;53.178;6.376;2023-07-20T06:47:43;6.30;;;1.40;;
51792;SDS011;37850;53.178;6.376;2023-07-20T06:50:09;4.10;;;1.20;;
51792;SDS011;37850;53.178;6.376;2023-07-20T06:52:36;6.05;;;1.80;;
51792;SDS011;37850;53.178;6.376;2023-07-20T06:55:02;5.03;;;1.30;;
51792;SDS011;37850;53.178;6.376;2023-07-20T06:57:28;6.30;;;1.63;;
51792;SDS011;37850;53.178;6.376;2023-07-20T06:59:54;5.47;;;1.20;;
51792;SDS011;37850;53.178;6.376;2023-07-20T07:02:19;5.38;;;1.27;;
51792;SDS011;37850;53.178;6.376;2023-07-20T07:04:45;5.20;;;1.58;;
51792;SDS011;37850;53.178;6.376;2023-07-20T07:07:13;4.70;;;1.40;;
51792;SDS011;37850;53.178;6.376;2023-07-20T07:09:40;6.95;;;1.60;;
51792;SDS011;37850;53.178;6.376;2023-07-20T07:12:06;6.47;;;1.60;;
51792;SDS011;37850;53.178;6.376;2023-07-20T07:14:32;5.78;;;1.50;;
51792;SDS011;37850;53.178;6.376;2023-07-20T07:16:58;4.65;;;1.58;;
51792;SDS011;37850;53.178;6.376;2023-07-20T07:19:24;7.28;;;1.45;;
51792;SDS011;37850;53.178;6.376;2023-07-20T07:21:50;5.30;;;1.40;;
51792;SDS011;37850;53.178;6.376;2023-07-20T07:24:16;6.75;;;1.90;;
51792;SDS011;37850;53.178;6.376;2023-07-20T07:26:42;5.53;;;1.75;;
51792;SDS011;37850;53.178;6.376;2023-07-20T07:29:07;6.47;;;1.98;;
51792;SDS011;37850;53.178;6.376;2023-07-20T07:31:36;5.75;;;1.80;;
51792;SDS011;37850;53.178;6.376;2023-07-20T07:34:02;5.88;;;2.00;;
51792;SDS011;37850;53.178;6.376;2023-07-20T07:36:28;7.80;;;2.40;;
51792;SDS011;37850;53.178;6.376;2023-07-20T07:38:54;8.63;;;1.90;;
51792;SDS011;37850;53.178;6.376;2023-07-20T07:41:19;6.88;;;2.10;;
51792;SDS011;37850;53.178;6.376;2023-07-20T07:43:46;7.10;;;2.10;;
51792;SDS011;37850;53.178;6.376;2023-07-20T07:46:11;7.88;;;2.38;;
51792;SDS011;37850;53.178;6.376;2023-07-20T07:48:38;8.75;;;2.42;;
51792;SDS011;37850;53.178;6.376;2023-07-20T07:51:04;6.75;;;2.05;;
51792;SDS011;37850;53.178;6.376;2023-07-20T07:53:30;4.68;;;1.75;;
51792;SDS011;37850;53.178;6.376;2023-07-20T07:55:55;7.13;;;1.98;;
51792;SDS011;37850;53.178;6.376;2023-07-20T07:58:21;11.40;;;2.22;;
51792;SDS011;37850;53.178;6.376;2023-07-20T08:00:47;7.13;;;1.70;;
51792;SDS011;37850;53.178;6.376;2023-07-20T08:03:13;8.18;;;1.67;;
51792;SDS011;37850;53.178;6.376;2023-07-20T08:05:39;5.47;;;1.52;;
51792;SDS011;37850;53.178;6.376;2023-07-20T08:08:05;6.95;;;1.60;;
51792;SDS011;37850;53.178;6.376;2023-07-20T08:10:31;4.65;;;1.83;;
51792;SDS011;37850;53.178;6.376;2023-07-20T08:12:57;5.43;;;1.73;;
51792;SDS011;37850;53.178;6.376;2023-07-20T08:15:22;9.25;;;1.67;;
51792;SDS011;37850;53.178;6.376;2023-07-20T08:17:48;8.88;;;1.70;;
51792;SDS011;37850;53.178;6.376;2023-07-20T08:20:16;8.60;;;1.83;;
51792;SDS011;37850;53.178;6.376;2023-07-20T08:22:42;6.22;;;1.60;;
51792;SDS011;37850;53.178;6.376;2023-07-20T08:25:08;7.07;;;1.60;;
51792;SDS011;37850;53.178;6.376;2023-07-20T08:27:35;5.25;;;1.67;;
51792;SDS011;37850;53.178;6.376;2023-07-20T08:30:02;5.53;;;1.55;;
51792;SDS011;37850;53.178;6.376;2023-07-20T08:32:29;5.72;;;1.58;;
51792;SDS011;37850;53.178;6.376;2023-07-20T08:34:55;5.10;;;1.88;;
51792;SDS011;37850;53.178;6.376;2023-07-20T08:37:20;4.82;;;1.35;;
51792;SDS011;37850;53.178;6.376;2023-07-20T08:39:47;7.70;;;2.03;;
51792;SDS011;37850;53.178;6.376;2023-07-20T08:42:13;6.15;;;1.92;;
51792;SDS011;37850;53.178;6.376;2023-07-20T08:44:40;4.63;;;1.20;;
51792;SDS011;37850;53.178;6.376;2023-07-20T08:47:08;6.43;;;1.15;;
51792;SDS011;37850;53.178;6.376;2023-07-20T08:49:35;6.57;;;1.50;;
51792;SDS011;37850;53.178;6.376;2023-07-20T08:52:03;5.43;;;1.00;;
51792;SDS011;37850;53.178;6.376;2023-07-20T08:54:30;4.05;;;1.05;;
51792;SDS011;37850;53.178;6.376;2023-07-20T08:57:03;4.32;;;1.00;;
51792;SDS011;37850;53.178;6.376;2023-07-20T08:59:30;4.43;;;1.23;;
51792;SDS011;37850;53.178;6.376;2023-07-20T09:01:58;4.15;;;1.08;;
51792;SDS011;37850;53.178;6.376;2023-07-20T09:04:24;4.40;;;1.00;;
51792;SDS011;37850;53.178;6.376;2023-07-20T09:06:50;4.57;;;1.20;;
51792;SDS011;37850;53.178;6.376;2023-07-20T09:09:16;4.90;;;1.15;;
51792;SDS011;37850;53.178;6.376;2023-07-20T09:11:42;8.40;;;1.10;;
51792;SDS011;37850;53.178;6.376;2023-07-20T09:14:09;3.33;;;0.93;;
51792;SDS011;37850;53.178;6.376;2023-07-20T09:16:48;2.78;;;0.70;;
51792;SDS011;37850;53.178;6.376;2023-07-20T09:19:18;4.13;;;1.00;;
51792;SDS011;37850;53.178;6.376;2023-07-20T09:21:44;4.03;;;0.93;;
51792;SDS011;37850;53.178;6.376;2023-07-20T09:24:12;3.80;;;1.10;;
51792;SDS011;37850;53.178;6.376;2023-07-20T09:26:41;3.78;;;0.90;;
51792;SDS011;37850;53.178;6.376;2023-07-20T09:29:08;3.42;;;0.90;;
51792;SDS011;37850;53.178;6.376;2023-07-20T09:31:35;3.53;;;1.02;;
51792;SDS011;37850;53.178;6.376;2023-07-20T09:34:01;3.83;;;0.80;;
51792;SDS011;37850;53.178;6.376;2023-07-20T09:36:28;2.85;;;0.90;;
51792;SDS011;37850;53.178;6.376;2023-07-20T09:38:54;5.07;;;0.80;;
51792;SDS011;37850;53.178;6.376;2023-07-20T09:41:20;6.25;;;0.98;;
51792;SDS011;37850;53.178;6.376;2023-07-20T09:43:46;2.15;;;0.80;;
51792;SDS011;37850;53.178;6.376;2023-07-20T09:46:13;3.22;;;0.82;;
51792;SDS011;37850;53.178;6.376;2023-07-20T09:48:38;1.80;;;0.80;;
51792;SDS011;37850;53.178;6.376;2023-07-20T09:51:04;5.13;;;0.90;;
51792;SDS011;37850;53.178;6.376;2023-07-20T09:53:33;4.95;;;1.27;;
51792;SDS011;37850;53.178;6.376;2023-07-20T09:56:00;2.20;;;0.80;;
51792;SDS011;37850;53.178;6.376;2023-07-20T09:58:26;5.95;;;0.80;;
51792;SDS011;37850;53.178;6.376;2023-07-20T10:00:52;3.60;;;0.88;;
51792;SDS011;37850;53.178;6.376;2023-07-20T10:03:22;3.35;;;0.82;;
51792;SDS011;37850;53.178;6.376;2023-07-20T10:06:08;4.35;;;1.05;;
51792;SDS011;37850;53.178;6.376;2023-07-20T10:08:41;2.80;;;0.70;;
51792;SDS011;37850;53.178;6.376;2023-07-20T10:11:08;3.63;;;1.00;;
51792;SDS011;37850;53.178;6.376;2023-07-20T10:13:37;3.55;;;0.98;;
51792;SDS011;37850;53.178;6.376;2023-07-20T10:16:10;3.83;;;1.00;;
51792;SDS011;37850;53.178;6.376;2023-07-20T10:18:46;3.92;;;0.85;;
51792;SDS011;37850;53.178;6.376;2023-07-20T10:21:19;3.30;;;0.90;;
51792;SDS011;37850;53.178;6.376;2023-07-20T10:23:48;3.22;;;0.85;;
51792;SDS011;37850;53.178;6.376;2023-07-20T10:26:14;2.50;;;0.77;;
51792;SDS011;37850;53.178;6.376;2023-07-20T10:28:40;4.85;;;0.95;;
51792;SDS011;37850;53.178;6.376;2023-07-20T10:31:10;3.38;;;1.00;;
51792;SDS011;37850;53.178;6.376;2023-07-20T10:33:38;3.55;;;1.13;;
51792;SDS011;37850;53.178;6.376;2023-07-20T10:36:04;3.58;;;0.90;;
51792;SDS011;37850;53.178;6.376;2023-07-20T10:41:22;6.93;;;1.10;;
51792;SDS011;37850;53.178;6.376;2023-07-20T10:43:51;3.63;;;0.90;;
51792;SDS011;37850;53.178;6.376;2023-07-20T10:49:07;4.20;;;1.00;;
51792;SDS011;37850;53.178;6.376;2023-07-20T10:56:41;4.43;;;1.25;;
51792;SDS011;37850;53.178;6.376;2023-07-20T10:59:18;3.63;;;1.10;;
51792;SDS011;37850;53.178;6.376;2023-07-20T11:01:47;4.90;;;1.02;;
51792;SDS011;37850;53.178;6.376;2023-07-20T11:04:14;4.90;;;1.10;;
51792;SDS011;37850;53.178;6.376;2023-07-20T11:06:43;6.10;;;1.33;;
51792;SDS011;37850;53.178;6.376;2023-07-20T11:09:12;5.13;;;1.30;;
51792;SDS011;37850;53.178;6.376;2023-07-20T11:11:40;3.97;;;1.10;;
51792;SDS011;37850;53.178;6.376;2023-07-20T11:14:19;4.20;;;1.00;;
51792;SDS011;37850;53.178;6.376;2023-07-20T11:16:47;5.18;;;0.95;;
51792;SDS011;37850;53.178;6.376;2023-07-20T11:19:25;2.88;;;1.00;;
51792;SDS011;37850;53.178;6.376;2023-07-20T11:21:55;6.85;;;1.05;;
51792;SDS011;37850;53.178;6.376;2023-07-20T11:24:22;4.10;;;0.90;;
51792;SDS011;37850;53.178;6.376;2023-07-20T11:26:52;4.80;;;1.17;;
51792;SDS011;37850;53.178;6.376;2023-07-20T11:29:20;4.00;;;0.95;;
51792;SDS011;37850;53.178;6.376;2023-07-20T11:31:48;3.35;;;1.13;;
51792;SDS011;37850;53.178;6.376;2023-07-20T11:34:18;4.63;;;1.02;;
51792;SDS011;37850;53.178;6.376;2023-07-20T11:36:49;4.75;;;1.13;;
51792;SDS011;37850;53.178;6.376;2023-07-20T11:41:51;4.10;;;1.17;;
51792;SDS011;37850;53.178;6.376;2023-07-20T11:44:18;4.38;;;0.90;;
51792;SDS011;37850;53.178;6.376;2023-07-20T11:47:13;3.45;;;1.10;;
51792;SDS011;37850;53.178;6.376;2023-07-20T11:49:41;7.72;;;1.45;;
51792;SDS011;37850;53.178;6.376;2023-07-20T11:52:11;6.75;;;1.05;;
51792;SDS011;37850;53.178;6.376;2023-07-20T11:54:40;5.25;;;1.02;;
51792;SDS011;37850;53.178;6.376;2023-07-20T11:57:15;3.30;;;0.90;;
51792;SDS011;37850;53.178;6.376;2023-07-20T11:59:54;3.00;;;0.90;;
51792;SDS011;37850;53.178;6.376;2023-07-20T12:02:22;2.90;;;1.02;;
51792;SDS011;37850;53.178;6.376;2023-07-20T12:04:51;5.03;;;1.23;;
51792;SDS011;37850;53.178;6.376;2023-07-20T12:07:18;3.83;;;1.17;;
51792;SDS011;37850;53.178;6.376;2023-07-20T12:09:44;4.40;;;0.95;;
51792;SDS011;37850;53.178;6.376;2023-07-20T12:12:27;3.28;;;1.00;;
51792;SDS011;37850;53.178;6.376;2023-07-20T12:14:53;6.25;;;1.00;;
51792;SDS011;37850;53.178;6.376;2023-07-20T12:17:19;8.55;;;1.67;;
51792;SDS011;37850;53.178;6.376;2023-07-20T12:19:45;8.82;;;2.60;;
51792;SDS011;37850;53.178;6.376;2023-07-20T12:22:11;9.07;;;1.90;;
51792;SDS011;37850;53.178;6.376;2023-07-20T12:24:37;7.68;;;1.65;;
51792;SDS011;37850;53.178;6.376;2023-07-20T12:27:03;4.63;;;1.30;;
51792;SDS011;37850;53.178;6.376;2023-07-20T12:29:29;4.93;;;1.38;;
51792;SDS011;37850;53.178;6.376;2023-07-20T12:31:56;5.15;;;1.10;;
51792;SDS011;37850;53.178;6.376;2023-07-20T12:34:22;3.67;;;1.38;;
51792;SDS011;37850;53.178;6.376;2023-07-20T12:36:48;4.35;;;1.30;;
51792;SDS011;37850;53.178;6.376;2023-07-20T12:39:14;4.43;;;1.17;;
51792;SDS011;37850;53.178;6.376;2023-07-20T12:41:39;5.93;;;1.27;;
51792;SDS011;37850;53.178;6.376;2023-07-20T12:44:05;4.05;;;1.50;;
51792;SDS011;37850;53.178;6.376;2023-07-20T12:46:31;5.43;;;1.25;;
51792;SDS011;37850;53.178;6.376;2023-07-20T12:49:00;3.85;;;1.17;;
51792;SDS011;37850;53.178;6.376;2023-07-20T12:51:25;3.30;;;1.02;;
51792;SDS011;37850;53.178;6.376;2023-07-20T12:53:51;3.60;;;0.95;;
51792;SDS011;37850;53.178;6.376;2023-07-20T12:56:17;4.72;;;1.10;;
51792;SDS011;37850;53.178;6.376;2023-07-20T12:58:44;6.28;;;0.90;;
51792;SDS011;37850;53.178;6.376;2023-07-20T13:01:09;4.80;;;0.90;;
51792;SDS011;37850;53.178;6.376;2023-07-20T13:03:35;4.88;;;1.35;;
51792;SDS011;37850;53.178;6.376;2023-07-20T13:06:01;4.45;;;1.45;;
51792;SDS011;37850;53.178;6.376;2023-07-20T13:08:27;5.18;;;1.17;;
51792;SDS011;37850;53.178;6.376;2023-07-20T13:10:52;6.63;;;1.23;;
51792;SDS011;37850;53.178;6.376;2023-07-20T13:13:18;2.83;;;1.10;;
51792;SDS011;37850;53.178;6.376;2023-07-20T13:15:44;3.30;;;0.93;;
51792;SDS011;37850;53.178;6.376;2023-07-20T13:18:11;4.50;;;1.30;;
51792;SDS011;37850;53.178;6.376;2023-07-20T13:20:37;2.35;;;0.80;;
51792;SDS011;37850;53.178;6.376;2023-07-20T13:23:04;3.17;;;1.00;;
51792;SDS011;37850;53.178;6.376;2023-07-20T13:25:30;5.00;;;1.00;;
51792;SDS011;37850;53.178;6.376;2023-07-20T13:27:56;4.80;;;1.10;;
51792;SDS011;37850;53.178;6.376;2023-07-20T13:30:21;3.58;;;1.00;;
51792;SDS011;37850;53.178;6.376;2023-07-20T13:32:47;4.65;;;1.02;;
51792;SDS011;37850;53.178;6.376;2023-07-20T13:35:13;3.75;;;0.98;;
51792;SDS011;37850;53.178;6.376;2023-07-20T13:37:39;4.40;;;1.30;;
51792;SDS011;37850;53.178;6.376;2023-07-20T13:40:09;4.22;;;0.90;;
51792;SDS011;37850;53.178;6.376;2023-07-20T13:42:38;3.13;;;1.15;;
51792;SDS011;37850;53.178;6.376;2023-07-20T13:45:05;2.42;;;0.70;;
51792;SDS011;37850;53.178;6.376;2023-07-20T13:47:32;4.20;;;0.98;;
51792;SDS011;37850;53.178;6.376;2023-07-20T13:49:58;3.03;;;0.90;;
51792;SDS011;37850;53.178;6.376;2023-07-20T13:52:23;5.25;;;0.98;;
51792;SDS011;37850;53.178;6.376;2023-07-20T13:54:49;3.22;;;1.00;;
51792;SDS011;37850;53.178;6.376;2023-07-20T13:57:15;4.07;;;1.00;;
51792;SDS011;37850;53.178;6.376;2023-07-20T13:59:41;4.47;;;1.27;;
51792;SDS011;37850;53.178;6.376;2023-07-20T14:02:07;3.08;;;0.88;;
51792;SDS011;37850;53.178;6.376;2023-07-20T14:04:32;6.03;;;1.13;;
51792;SDS011;37850;53.178;6.376;2023-07-20T14:06:58;4.60;;;0.93;;
51792;SDS011;37850;53.178;6.376;2023-07-20T14:09:24;3.40;;;1.05;;
51792;SDS011;37850;53.178;6.376;2023-07-20T14:11:50;4.07;;;1.13;;
51792;SDS011;37850;53.178;6.376;2023-07-20T14:14:15;3.25;;;0.90;;
51792;SDS011;37850;53.178;6.376;2023-07-20T14:16:41;4.75;;;0.90;;
51792;SDS011;37850;53.178;6.376;2023-07-20T14:19:07;4.15;;;1.23;;
51792;SDS011;37850;53.178;6.376;2023-07-20T14:21:33;3.40;;;0.95;;
51792;SDS011;37850;53.178;6.376;2023-07-20T14:23:59;4.47;;;1.10;;
51792;SDS011;37850;53.178;6.376;2023-07-20T14:26:24;4.68;;;1.15;;
51792;SDS011;37850;53.178;6.376;2023-07-20T14:28:50;7.18;;;1.73;;
51792;SDS011;37850;53.178;6.376;2023-07-20T14:31:16;3.55;;;1.20;;
51792;SDS011;37850;53.178;6.376;2023-07-20T14:33:42;5.63;;;1.38;;
51792;SDS011;37850;53.178;6.376;2023-07-20T14:36:08;4.38;;;1.27;;
51792;SDS011;37850;53.178;6.376;2023-07-20T14:38:33;5.45;;;1.58;;
51792;SDS011;37850;53.178;6.376;2023-07-20T14:41:00;5.38;;;1.60;;
51792;SDS011;37850;53.178;6.376;2023-07-20T14:43:26;5.85;;;1.65;;
51792;SDS011;37850;53.178;6.376;2023-07-20T14:45:51;6.50;;;1.65;;
51792;SDS011;37850;53.178;6.376;2023-07-20T14:48:17;4.35;;;1.50;;
51792;SDS011;37850;53.178;6.376;2023-07-20T14:50:43;5.55;;;1.65;;
51792;SDS011;37850;53.178;6.376;2023-07-20T14:53:12;4.47;;;1.48;;
51792;SDS011;37850;53.178;6.376;2023-07-20T14:55:39;4.20;;;1.33;;
51792;SDS011;37850;53.178;6.376;2023-07-20T14:58:05;4.35;;;1.40;;
51792;SDS011;37850;53.178;6.376;2023-07-20T15:00:31;5.15;;;1.50;;
51792;SDS011;37850;53.178;6.376;2023-07-20T15:02:56;5.38;;;1.83;;
51792;SDS011;37850;53.178;6.376;2023-07-20T15:05:22;6.55;;;1.50;;